createdAt,value
2022-08-19T00:00:23.074Z,101396.38
2022-08-19T00:02:24.775Z,101396.16
2022-08-19T00:04:29.983Z,101404.97
2022-08-19T00:06:31.918Z,101411.97
2022-08-19T00:08:33.492Z,101418.09
2022-08-19T00:10:35.104Z,101415.41
2022-08-19T00:12:39.530Z,101415.41
2022-08-19T00:14:48.629Z,101416.22
2022-08-19T00:16:52.449Z,101410.72
2022-08-19T00:18:57.458Z,101409.84
2022-08-19T00:21:00.374Z,101414.25
2022-08-19T00:23:01.881Z,101408.84
2022-08-19T00:25:03.960Z,101410.56
2022-08-19T00:27:25.960Z,101402.50
2022-08-19T00:29:27.543Z,101408.78
2022-08-19T00:31:29.107Z,101406.88
2022-08-19T00:33:33.463Z,101409.41
2022-08-19T00:35:35.196Z,101410.13
2022-08-19T00:37:36.932Z,101406.41
2022-08-19T00:39:38.637Z,101416.00
2022-08-19T00:41:40.448Z,101412.22
2022-08-19T00:43:42.185Z,101407.81
2022-08-19T00:45:44.593Z,101412.31
2022-08-19T00:47:46.498Z,101413.25
2022-08-19T00:49:54.713Z,101413.25
2022-08-19T00:52:17.734Z,101411.50
2022-08-19T00:54:20.179Z,101418.81
2022-08-19T00:56:32.318Z,101417.06
2022-08-19T00:58:36.242Z,101421.41
2022-08-19T01:00:38.808Z,101416.22
2022-08-19T01:02:41.890Z,101409.94
2022-08-19T01:04:43.430Z,101411.75
2022-08-19T01:06:44.974Z,101415.28
2022-08-19T01:08:46.900Z,101415.28
2022-08-19T01:10:55.805Z,101404.66
2022-08-19T01:13:00.449Z,101398.59
2022-08-19T01:15:02.386Z,101398.50
2022-08-19T01:17:04.783Z,101403.72
2022-08-19T01:19:20.034Z,101396.66
2022-08-19T01:21:35.460Z,101399.25
2022-08-19T01:23:45.928Z,101384.88
2022-08-19T01:25:54.654Z,101386.53
2022-08-19T01:27:56.719Z,101378.44
2022-08-19T01:30:06.752Z,101382.13
2022-08-19T01:32:32.006Z,101379.53
2022-08-19T01:34:35.123Z,101376.94
2022-08-19T01:36:45.350Z,101366.34
2022-08-19T01:38:47.222Z,101360.19
2022-08-19T01:40:48.830Z,101363.78
2022-08-19T01:42:51.319Z,101358.44
2022-08-19T01:44:52.825Z,101358.34
2022-08-19T01:46:54.372Z,101356.38
2022-08-19T01:48:55.950Z,101357.25
2022-08-19T01:50:57.453Z,101356.28
2022-08-19T01:53:06.379Z,101358.97
2022-08-19T01:55:13.768Z,101358.81
2022-08-19T01:57:15.775Z,101360.41
2022-08-19T01:59:21.511Z,101354.22
2022-08-19T02:01:23.078Z,101351.75
2022-08-19T02:03:27.424Z,101358.03
2022-08-19T02:05:30.185Z,101349.94
2022-08-19T02:07:31.791Z,101349.00
2022-08-19T02:09:33.615Z,101344.47
2022-08-19T02:11:37.407Z,101347.94
2022-08-19T02:13:38.906Z,101348.00
2022-08-19T02:15:40.875Z,101350.81
2022-08-19T02:17:43.136Z,101350.16
2022-08-19T02:19:44.634Z,101343.16
2022-08-19T02:21:46.157Z,101338.78
2022-08-19T02:23:48.122Z,101335.28
2022-08-19T02:25:50.201Z,101326.72
2022-08-19T02:27:51.717Z,101320.91
2022-08-19T02:29:53.594Z,101313.50
2022-08-19T02:31:55.090Z,101311.91
2022-08-19T02:33:57.489Z,101319.09
2022-08-19T02:35:59.042Z,101311.25
2022-08-19T02:38:19.733Z,101300.78
2022-08-19T02:40:22.092Z,101315.31
2022-08-19T02:42:23.882Z,101309.47
2022-08-19T02:44:31.354Z,101316.69
2022-08-19T02:46:34.452Z,101321.00
2022-08-19T02:48:35.936Z,101322.66
2022-08-19T02:50:41.195Z,101320.84
2022-08-19T02:52:54.788Z,101319.28
2022-08-19T02:54:58.383Z,101318.72
2022-08-19T02:56:59.880Z,101310.06
2022-08-19T02:59:01.401Z,101311.13
2022-08-19T03:01:03.426Z,101308.47
2022-08-19T03:03:05.405Z,101311.06
2022-08-19T03:05:09.064Z,101298.53
2022-08-19T03:07:14.839Z,101305.50
2022-08-19T03:09:17.847Z,101315.25
2022-08-19T03:11:24.911Z,101307.38
2022-08-19T03:13:26.575Z,101304.06
2022-08-19T03:15:28.148Z,101315.88
2022-08-19T03:17:29.651Z,101314.34
2022-08-19T03:19:32.472Z,101325.88
2022-08-19T03:21:35.348Z,101329.41
2022-08-19T03:23:37.105Z,101326.59
2022-08-19T03:25:42.928Z,101324.72
2022-08-19T03:27:44.503Z,101334.44
2022-08-19T03:29:46.582Z,101339.75
2022-08-19T03:31:52.309Z,101347.78
2022-08-19T03:33:54.328Z,101347.06
2022-08-19T03:36:05.982Z,101351.47
2022-08-19T03:38:08.253Z,101347.00
2022-08-19T03:40:10.158Z,101355.00
2022-08-19T03:42:32.503Z,101358.69
2022-08-19T03:44:37.293Z,101357.03
2022-08-19T03:46:38.818Z,101351.81
2022-08-19T03:48:46.097Z,101341.72
2022-08-19T03:50:47.584Z,101337.13
2022-08-19T03:52:53.019Z,101341.31
2022-08-19T03:54:54.765Z,101344.19
2022-08-19T03:56:57.451Z,101355.63
2022-08-19T03:59:00.595Z,101358.16
2022-08-19T04:01:02.114Z,101365.91
2022-08-19T04:03:03.789Z,101367.75
2022-08-19T04:05:06.516Z,101361.50
2022-08-19T04:07:10.352Z,101353.38
2022-08-19T04:09:12.652Z,101355.94
2022-08-19T04:11:16.808Z,101351.69
2022-08-19T04:13:18.886Z,101363.38
2022-08-19T04:15:21.649Z,101375.69
2022-08-19T04:17:23.380Z,101372.09
2022-08-19T04:19:25.079Z,101377.28
2022-08-19T04:21:28.283Z,101377.56
2022-08-19T04:23:29.853Z,101370.63
2022-08-19T04:25:36.959Z,101368.75
2022-08-19T04:27:38.454Z,101370.63
2022-08-19T04:29:41.331Z,101370.63
2022-08-19T04:31:46.061Z,101370.50
2022-08-19T04:33:47.788Z,101368.81
2022-08-19T04:35:52.524Z,101362.78
2022-08-19T04:37:54.008Z,101359.44
2022-08-19T04:40:14.620Z,101363.16
2022-08-19T04:42:37.255Z,101365.16
2022-08-19T04:44:44.045Z,101371.38
2022-08-19T04:46:51.405Z,101367.84
2022-08-19T04:48:54.451Z,101372.22
2022-08-19T04:51:01.047Z,101372.22
2022-08-19T04:53:02.707Z,101371.31
2022-08-19T04:55:06.952Z,101372.09
2022-08-19T04:57:11.123Z,101370.38
2022-08-19T04:59:12.973Z,101372.97
2022-08-19T05:01:18.880Z,101367.69
2022-08-19T05:03:21.713Z,101374.97
2022-08-19T05:05:23.208Z,101367.25
2022-08-19T05:07:24.801Z,101371.03
2022-08-19T05:09:26.368Z,101375.66
2022-08-19T05:11:33.961Z,101382.72
2022-08-19T05:13:35.542Z,101384.44
2022-08-19T05:15:37.273Z,101384.44
2022-08-19T05:17:39.373Z,101388.91
2022-08-19T05:19:59.589Z,101381.69
2022-08-19T05:22:20.492Z,101379.56
2022-08-19T05:24:24.441Z,101379.28
2022-08-19T05:26:27.068Z,101378.28
2022-08-19T05:28:28.622Z,101377.28
2022-08-19T05:30:46.799Z,101382.50
2022-08-19T05:32:49.216Z,101384.03
2022-08-19T05:34:50.750Z,101386.41
2022-08-19T05:36:57.190Z,101392.34
2022-08-19T05:38:58.684Z,101390.50
2022-08-19T05:41:00.207Z,101396.63
2022-08-19T05:43:01.699Z,101382.44
2022-08-19T05:45:05.359Z,101387.91
2022-08-19T05:47:09.340Z,101374.81
2022-08-19T05:49:10.916Z,101384.88
2022-08-19T05:51:12.720Z,101374.22
2022-08-19T05:53:15.306Z,101369.63
2022-08-19T05:55:16.783Z,101369.44
2022-08-19T05:57:20.218Z,101361.97
2022-08-19T05:59:22.548Z,101366.09
2022-08-19T06:01:27.552Z,101361.44
2022-08-19T06:03:29.033Z,101364.25
2022-08-19T06:05:31.667Z,101364.31
2022-08-19T06:07:47.944Z,101374.75
2022-08-19T06:10:00.782Z,101374.59
2022-08-19T06:12:03.949Z,101376.97
2022-08-19T06:14:09.522Z,101382.31
2022-08-19T06:16:24.674Z,101373.44
2022-08-19T06:18:26.186Z,101369.97
2022-08-19T06:20:54.040Z,101378.72
2022-08-19T06:22:51.323Z,101384.41
2022-08-19T06:24:54.592Z,101382.38
2022-08-19T06:27:00.793Z,101397.00
2022-08-19T06:29:07.271Z,101389.44
2022-08-19T06:31:09.193Z,101385.69
2022-08-19T06:33:10.831Z,101398.22
2022-08-19T06:35:13.561Z,101394.56
2022-08-19T06:37:15.166Z,101399.38
2022-08-19T06:39:20.495Z,101402.34
2022-08-19T06:41:22.039Z,101407.03
2022-08-19T06:43:23.533Z,101400.81
2022-08-19T06:45:34.455Z,101401.47
2022-08-19T06:47:37.313Z,101401.13
2022-08-19T06:49:39.429Z,101404.38
2022-08-19T06:51:48.273Z,101399.59
2022-08-19T06:53:52.871Z,101413.25
2022-08-19T06:56:00.841Z,101406.47
2022-08-19T06:58:04.700Z,101409.19
2022-08-19T07:00:13.034Z,101407.13
2022-08-19T07:02:14.732Z,101409.19
2022-08-19T07:04:19.264Z,101408.78
2022-08-19T07:08:43.918Z,101415.53
2022-08-19T07:10:46.456Z,101415.28
2022-08-19T07:12:50.014Z,101413.09
2022-08-19T07:14:51.640Z,101412.56
2022-08-19T07:16:56.641Z,101413.19
2022-08-19T07:18:59.085Z,101415.47
2022-08-19T07:21:30.385Z,101415.88
2022-08-19T07:23:32.023Z,101425.06
2022-08-19T07:25:33.541Z,101430.88
2022-08-19T07:27:35.590Z,101431.19
2022-08-19T07:29:37.588Z,101429.16
2022-08-19T07:31:39.625Z,101427.59
2022-08-19T07:33:44.247Z,101416.03
2022-08-19T07:35:45.785Z,101422.25
2022-08-19T07:37:47.435Z,101419.53
2022-08-19T07:39:49.313Z,101430.78
2022-08-19T07:41:51.597Z,101433.53
2022-08-19T07:43:54.012Z,101448.38
2022-08-19T07:45:59.649Z,101444.34
2022-08-19T07:48:02.042Z,101449.22
2022-08-19T07:50:07.836Z,101445.34
2022-08-19T07:52:10.739Z,101455.28
2022-08-19T07:54:12.639Z,101456.75
2022-08-19T07:56:15.503Z,101458.41
2022-08-19T07:58:20.557Z,101461.63
2022-08-19T08:00:24.390Z,101462.34
2022-08-19T08:02:26.171Z,101460.09
2022-08-19T08:04:47.213Z,101459.53
2022-08-19T08:07:07.096Z,101466.47
2022-08-19T08:09:12.202Z,101455.28
2022-08-19T08:11:15.479Z,101446.47
2022-08-19T08:13:17.457Z,101455.44
2022-08-19T08:15:19.396Z,101458.28
2022-08-19T08:17:48.564Z,101459.59
2022-08-19T08:19:46.441Z,101467.72
2022-08-19T08:21:49.480Z,101476.88
2022-08-19T08:23:55.653Z,101475.25
2022-08-19T08:25:59.482Z,101470.22
2022-08-19T08:28:01.179Z,101477.50
2022-08-19T08:30:03.874Z,101483.09
2022-08-19T08:32:14.023Z,101482.84
2022-08-19T08:34:16.303Z,101480.09
2022-08-19T08:36:18.465Z,101473.50
2022-08-19T08:38:19.960Z,101480.00
2022-08-19T08:40:28.568Z,101467.81
2022-08-19T08:42:33.407Z,101478.19
2022-08-19T08:44:37.628Z,101475.41
2022-08-19T08:46:46.791Z,101486.56
2022-08-19T08:48:57.477Z,101487.19
2022-08-19T08:51:02.537Z,101484.66
2022-08-19T08:53:09.468Z,101480.59
2022-08-19T08:55:14.769Z,101485.94
2022-08-19T08:57:28.877Z,101491.41
2022-08-19T08:59:39.655Z,101492.16
2022-08-19T09:01:41.473Z,101487.22
2022-08-19T09:03:46.296Z,101482.94
2022-08-19T09:06:04.822Z,101486.88
2022-08-19T09:08:29.930Z,101491.09
2022-08-19T09:10:44.710Z,101487.94
2022-08-19T09:13:01.511Z,101486.19
2022-08-19T09:15:08.497Z,101487.16
2022-08-19T09:17:10.636Z,101485.66
2022-08-19T09:19:12.225Z,101482.53
2022-08-19T09:21:15.202Z,101477.38
2022-08-19T09:23:16.775Z,101472.94
2022-08-19T09:25:26.729Z,101472.59
2022-08-19T09:27:42.859Z,101478.50
2022-08-19T09:29:54.745Z,101479.13
2022-08-19T09:31:56.448Z,101478.00
2022-08-19T09:33:58.186Z,101476.13
2022-08-19T09:36:21.743Z,101472.53
2022-08-19T09:38:31.012Z,101481.66
2022-08-19T09:40:37.785Z,101476.56
2022-08-19T09:42:50.342Z,101473.28
2022-08-19T09:44:52.516Z,101473.56
2022-08-19T09:46:54.055Z,101474.41
2022-08-19T09:48:59.382Z,101469.13
2022-08-19T09:51:11.970Z,101469.91
2022-08-19T09:53:13.585Z,101472.00
2022-08-19T09:55:16.958Z,101468.53
2022-08-19T09:57:19.608Z,101463.41
2022-08-19T09:59:21.425Z,101467.94
2022-08-19T10:01:26.063Z,101463.91
2022-08-19T10:03:30.203Z,101468.88
2022-08-19T10:05:49.891Z,101464.72
2022-08-19T10:07:51.818Z,101464.34
2022-08-19T10:09:53.424Z,101460.19
2022-08-19T10:11:55.189Z,101447.69
2022-08-19T10:13:57.352Z,101446.44
2022-08-19T10:16:08.644Z,101443.72
2022-08-19T10:18:12.136Z,101442.75
2022-08-19T10:20:13.760Z,101442.88
2022-08-19T10:22:16.157Z,101437.28
2022-08-19T10:24:17.740Z,101436.84
2022-08-19T10:26:23.688Z,101447.06
2022-08-19T10:28:28.069Z,101443.72
2022-08-19T10:30:31.943Z,101444.81
2022-08-19T10:32:34.622Z,101446.16
2022-08-19T10:34:37.967Z,101438.22
2022-08-19T10:36:56.039Z,101442.56
2022-08-19T10:39:02.562Z,101428.59
2022-08-19T10:41:20.148Z,101433.16
2022-08-19T10:43:21.705Z,101413.44
2022-08-19T10:45:26.203Z,101422.50
2022-08-19T10:47:31.751Z,101417.59
2022-08-19T10:49:53.403Z,101419.28
2022-08-19T10:52:18.978Z,101423.81
2022-08-19T10:54:31.429Z,101422.06
2022-08-19T10:56:53.592Z,101421.88
2022-08-19T10:58:55.219Z,101421.28
2022-08-19T11:00:58.910Z,101422.34
2022-08-19T11:03:00.541Z,101431.81
2022-08-19T11:05:12.323Z,101431.91
2022-08-19T11:07:14.390Z,101424.53
2022-08-19T11:09:20.063Z,101415.72
2022-08-19T11:11:22.469Z,101427.00
2022-08-19T11:13:24.392Z,101422.56
2022-08-19T11:15:26.020Z,101421.63
2022-08-19T11:17:27.916Z,101426.53
2022-08-19T11:19:29.493Z,101422.78
2022-08-19T11:21:37.997Z,101426.47
2022-08-19T11:23:39.621Z,101418.56
2022-08-19T11:25:41.314Z,101424.34
2022-08-19T11:27:44.160Z,101421.38
2022-08-19T11:29:45.713Z,101429.63
2022-08-19T11:31:49.462Z,101423.47
2022-08-19T11:33:54.654Z,101420.53
2022-08-19T11:36:00.082Z,101418.66
2022-08-19T11:38:02.360Z,101411.03
2022-08-19T11:40:05.829Z,101410.06
2022-08-19T11:42:28.136Z,101412.78
2022-08-19T11:44:31.250Z,101401.97
2022-08-19T11:46:32.832Z,101407.31
2022-08-19T11:48:35.808Z,101404.63
2022-08-19T11:50:37.319Z,101404.50
2022-08-19T11:52:38.841Z,101408.34
2022-08-19T11:54:40.344Z,101401.81
2022-08-19T11:56:42.519Z,101411.13
2022-08-19T11:58:44.562Z,101399.66
2022-08-19T12:00:46.213Z,101400.72
2022-08-19T12:02:47.727Z,101400.94
2022-08-19T12:04:49.396Z,101396.19
2022-08-19T12:06:51.140Z,101394.94
2022-08-19T12:08:53.117Z,101402.31
2022-08-19T12:10:54.608Z,101394.06
2022-08-19T12:12:58.843Z,101387.94
2022-08-19T12:15:00.677Z,101389.69
2022-08-19T12:17:03.173Z,101388.84
2022-08-19T12:19:06.066Z,101389.31
2022-08-19T12:21:07.620Z,101376.31
2022-08-19T12:23:10.614Z,101381.09
2022-08-19T12:25:12.761Z,101372.72
2022-08-19T12:27:14.402Z,101370.41
2022-08-19T12:29:30.267Z,101381.94
2022-08-19T12:31:32.792Z,101389.44
2022-08-19T12:33:34.424Z,101389.78
2022-08-19T12:35:36.247Z,101391.38
2022-08-19T12:37:38.236Z,101394.28
2022-08-19T12:39:43.040Z,101389.03
2022-08-19T12:41:54.266Z,101394.31
2022-08-19T12:43:56.715Z,101392.38
2022-08-19T12:45:58.592Z,101389.44
2022-08-19T12:48:00.126Z,101375.44
2022-08-19T12:50:06.480Z,101379.00
2022-08-19T12:52:09.657Z,101383.19
2022-08-19T12:54:11.799Z,101369.94
2022-08-19T12:56:15.688Z,101367.72
2022-08-19T12:58:18.038Z,101366.09
2022-08-19T13:00:22.490Z,101361.44
2022-08-19T13:02:23.982Z,101360.09
2022-08-19T13:04:25.523Z,101359.63
2022-08-19T13:06:27.581Z,101361.56
2022-08-19T13:08:29.059Z,101361.91
2022-08-19T13:10:36.617Z,101369.66
2022-08-19T13:12:38.679Z,101366.47
2022-08-19T13:14:41.923Z,101362.91
2022-08-19T13:16:44.087Z,101367.56
2022-08-19T13:18:48.346Z,101367.44
2022-08-19T13:20:53.017Z,101376.16
2022-08-19T13:22:55.732Z,101374.81
2022-08-19T13:24:57.253Z,101373.47
2022-08-19T13:26:59.775Z,101363.66
2022-08-19T13:29:19.763Z,101359.34
2022-08-19T13:31:42.772Z,101360.84
2022-08-19T13:33:44.321Z,101355.31
2022-08-19T13:35:47.943Z,101362.19
2022-08-19T13:37:49.539Z,101356.66
2022-08-19T13:39:51.126Z,101350.88
2022-08-19T13:41:52.753Z,101342.16
2022-08-19T13:43:55.180Z,101335.91
2022-08-19T13:45:57.599Z,101340.06
2022-08-19T13:47:59.955Z,101342.53
2022-08-19T13:50:05.351Z,101345.94
2022-08-19T13:52:06.921Z,101349.88
2022-08-19T13:54:09.659Z,101348.03
2022-08-19T13:56:24.154Z,101342.59
2022-08-19T13:58:27.442Z,101342.38
2022-08-19T14:00:31.919Z,101350.38
2022-08-19T14:02:33.442Z,101341.66
2022-08-19T14:04:38.393Z,101344.75
2022-08-19T14:06:39.886Z,101343.50
2022-08-19T14:08:46.057Z,101337.72
2022-08-19T14:10:48.176Z,101337.69
2022-08-19T14:12:50.205Z,101331.91
2022-08-19T14:14:51.697Z,101340.47
2022-08-19T14:16:53.186Z,101329.44
2022-08-19T14:18:54.718Z,101319.84
2022-08-19T14:20:57.227Z,101324.75
2022-08-19T14:23:00.519Z,101322.66
2022-08-19T14:25:02.164Z,101313.44
2022-08-19T14:27:04.333Z,101316.16
2022-08-19T14:29:06.539Z,101316.38
2022-08-19T14:31:09.109Z,101313.81
2022-08-19T14:33:10.586Z,101318.09
2022-08-19T14:35:13.777Z,101325.00
2022-08-19T14:37:15.902Z,101322.16
2022-08-19T14:39:18.192Z,101319.84
2022-08-19T14:41:24.514Z,101323.28
2022-08-19T14:43:25.997Z,101323.28
2022-08-19T14:45:29.455Z,101328.44
2022-08-19T14:47:30.944Z,101331.88
2022-08-19T14:49:41.158Z,101326.34
2022-08-19T14:51:46.530Z,101332.25
2022-08-19T14:53:50.841Z,101332.13
2022-08-19T14:55:52.468Z,101329.56
2022-08-19T14:57:54.018Z,101330.41
2022-08-19T14:59:58.008Z,101333.47
2022-08-19T15:02:00.701Z,101332.84
2022-08-19T15:04:22.163Z,101333.97
2022-08-19T15:06:25.833Z,101331.88
2022-08-19T15:08:29.628Z,101339.13
2022-08-19T15:10:31.653Z,101342.19
2022-08-19T15:12:34.958Z,101333.34
2022-08-19T15:14:38.630Z,101345.06
2022-08-19T15:16:41.828Z,101341.72
2022-08-19T15:18:45.585Z,101341.97
2022-08-19T15:20:48.624Z,101343.81
2022-08-19T15:22:52.612Z,101345.28
2022-08-19T15:24:55.890Z,101351.31
2022-08-19T15:26:58.354Z,101348.97
2022-08-19T15:29:01.364Z,101350.16
2022-08-19T15:31:04.073Z,101351.53
2022-08-19T15:33:06.198Z,101346.63
2022-08-19T15:35:08.429Z,101355.97
2022-08-19T15:37:10.074Z,101347.38
2022-08-19T15:39:11.669Z,101339.00
2022-08-19T15:41:23.956Z,101342.09
2022-08-19T15:43:25.538Z,101342.94
2022-08-19T15:45:32.590Z,101345.78
2022-08-19T15:47:35.385Z,101343.94
2022-08-19T15:49:37.237Z,101343.88
2022-08-19T15:51:41.828Z,101350.88
2022-08-19T15:53:43.550Z,101345.88
2022-08-19T15:55:46.152Z,101352.25
2022-08-19T15:58:06.177Z,101345.78
2022-08-19T16:00:28.291Z,101343.06
2022-08-19T16:02:48.682Z,101339.38
2022-08-19T16:05:13.587Z,101336.94
2022-08-19T16:07:15.145Z,101338.28
2022-08-19T16:09:29.114Z,101341.34
2022-08-19T16:11:39.471Z,101333.84
2022-08-19T16:13:41.738Z,101336.31
2022-08-19T16:15:43.989Z,101333.59
2022-08-19T16:17:45.527Z,101335.94
2022-08-19T16:19:58.093Z,101336.56
2022-08-19T16:21:59.622Z,101329.56
2022-08-19T16:24:05.206Z,101327.22
2022-08-19T16:26:06.768Z,101331.41
2022-08-19T16:28:09.620Z,101331.75
2022-08-19T16:30:11.661Z,101335.31
2022-08-19T16:32:13.237Z,101334.59
2022-08-19T16:34:14.765Z,101336.44
2022-08-19T16:36:16.640Z,101339.25
2022-08-19T16:38:19.714Z,101343.06
2022-08-19T16:40:22.875Z,101340.84
2022-08-19T16:42:24.435Z,101347.59
2022-08-19T16:44:29.836Z,101351.28
2022-08-19T16:46:31.575Z,101354.72
2022-08-19T16:48:34.955Z,101356.97
2022-08-19T16:50:49.072Z,101351.56
2022-08-19T16:52:50.941Z,101353.28
2022-08-19T16:54:52.878Z,101345.16
2022-08-19T16:56:56.092Z,101351.31
2022-08-19T16:58:59.761Z,101342.63
2022-08-19T17:01:04.435Z,101352.09
2022-08-19T17:03:14.615Z,101351.00
2022-08-19T17:05:16.987Z,101351.50
2022-08-19T17:07:19.568Z,101355.56
2022-08-19T17:09:26.073Z,101356.78
2022-08-19T17:11:31.160Z,101352.72
2022-08-19T17:13:32.683Z,101346.72
2022-08-19T17:15:34.856Z,101353.84
2022-08-19T17:17:37.241Z,101351.25
2022-08-19T17:19:41.774Z,101354.41
2022-08-19T17:21:43.286Z,101354.53
2022-08-19T17:23:44.786Z,101358.22
2022-08-19T17:25:46.523Z,101353.19
2022-08-19T17:27:48.094Z,101356.16
2022-08-19T17:29:49.626Z,101354.56
2022-08-19T17:31:51.307Z,101360.19
2022-08-19T17:33:52.924Z,101356.16
2022-08-19T17:35:56.674Z,101354.63
2022-08-19T17:38:03.019Z,101357.72
2022-08-19T17:40:07.024Z,101353.53
2022-08-19T17:42:09.844Z,101353.03
2022-08-19T17:44:11.329Z,101348.00
2022-08-19T17:46:20.477Z,101348.25
2022-08-19T17:48:24.023Z,101346.75
2022-08-19T17:50:25.792Z,101350.06
2022-08-19T17:52:27.294Z,101344.06
2022-08-19T17:54:33.729Z,101335.47
2022-08-19T17:56:35.575Z,101334.78
2022-08-19T17:58:38.482Z,101344.09
2022-08-19T18:00:53.717Z,101333.75
2022-08-19T18:02:58.234Z,101334.97
2022-08-19T18:04:59.718Z,101338.03
2022-08-19T18:07:04.135Z,101333.97
2022-08-19T18:09:06.629Z,101336.06
2022-08-19T18:11:08.970Z,101333.22
2022-08-19T18:13:17.666Z,101329.78
2022-08-19T18:15:21.329Z,101331.75
2022-08-19T18:17:23.422Z,101335.44
2022-08-19T18:19:25.980Z,101333.69
2022-08-19T18:21:35.708Z,101331.25
2022-08-19T18:23:43.780Z,101336.09
2022-08-19T18:25:47.482Z,101331.78
2022-08-19T18:27:49.082Z,101334.84
2022-08-19T18:29:50.765Z,101336.16
2022-08-19T18:31:56.557Z,101332.09
2022-08-19T18:33:58.810Z,101333.66
2022-08-19T18:36:01.701Z,101328.81
2022-08-19T18:38:26.285Z,101332.06
2022-08-19T18:40:48.339Z,101329.91
2022-08-19T18:43:08.459Z,101333.19
2022-08-19T18:45:30.335Z,101340.97
2022-08-19T18:47:50.632Z,101346.16
2022-08-19T18:49:52.292Z,101338.09
2022-08-19T18:51:56.539Z,101334.88
2022-08-19T18:53:59.593Z,101340.81
2022-08-19T18:56:02.489Z,101336.56
2022-08-19T18:58:03.994Z,101339.59
2022-08-19T19:00:07.586Z,101337.25
2022-08-19T19:02:11.874Z,101334.22
2022-08-19T19:04:13.525Z,101341.97
2022-08-19T19:06:25.671Z,101329.25
2022-08-19T19:08:27.614Z,101338.84
2022-08-19T19:10:29.202Z,101338.41
2022-08-19T19:12:30.868Z,101334.31
2022-08-19T19:14:49.169Z,101340.88
2022-08-19T19:16:51.936Z,101349.25
2022-08-19T19:18:53.506Z,101333.41
2022-08-19T19:20:56.190Z,101349.00
2022-08-19T19:22:58.415Z,101342.94
2022-08-19T19:25:02.521Z,101348.50
2022-08-19T19:27:06.877Z,101349.78
2022-08-19T19:29:08.436Z,101354.19
2022-08-19T19:31:13.927Z,101344.59
2022-08-19T19:33:15.511Z,101345.56
2022-08-19T19:35:17.145Z,101352.97
2022-08-19T19:37:19.552Z,101360.53
2022-08-19T19:39:44.814Z,101354.41
2022-08-19T19:41:42.772Z,101361.72
2022-08-19T19:43:44.539Z,101356.53
2022-08-19T19:45:46.542Z,101370.19
2022-08-19T19:47:50.155Z,101361.47
2022-08-19T19:50:13.371Z,101366.16
2022-08-19T19:52:14.106Z,101367.44
2022-08-19T19:54:15.690Z,101375.78
2022-08-19T19:56:17.369Z,101375.13
2022-08-19T19:58:19.231Z,101381.66
2022-08-19T20:00:30.158Z,101379.28
2022-08-19T20:02:31.734Z,101379.50
2022-08-19T20:04:33.257Z,101376.25
2022-08-19T20:06:36.148Z,101374.72
2022-08-19T20:08:56.435Z,101371.38
2022-08-19T20:11:02.354Z,101375.22
2022-08-19T20:13:04.824Z,101369.94
2022-08-19T20:15:08.113Z,101374.44
2022-08-19T20:17:09.699Z,101380.00
2022-08-19T20:19:13.342Z,101378.38
2022-08-19T20:21:14.875Z,101375.91
2022-08-19T20:23:18.397Z,101384.16
2022-08-19T20:25:22.222Z,101388.06
2022-08-19T20:27:24.222Z,101384.97
2022-08-19T20:29:38.996Z,101385.16
2022-08-19T20:31:44.332Z,101394.09
2022-08-19T20:34:00.989Z,101394.19
2022-08-19T20:36:02.841Z,101398.69
2022-08-19T20:38:06.473Z,101400.59
2022-08-19T20:40:10.110Z,101397.16
2022-08-19T20:42:11.684Z,101406.25
2022-08-19T20:44:13.179Z,101410.75
2022-08-19T20:46:15.017Z,101415.34
2022-08-19T20:48:16.592Z,101412.00
2022-08-19T20:50:18.347Z,101408.63
2022-08-19T20:52:20.111Z,101414.56
2022-08-19T20:54:21.713Z,101421.25
2022-08-19T20:56:23.286Z,101418.88
2022-08-19T20:58:25.634Z,101424.78
2022-08-19T21:00:29.330Z,101424.00
2022-08-19T21:02:30.825Z,101430.16
2022-08-19T21:04:33.045Z,101426.50
2022-08-19T21:06:34.762Z,101431.09
2022-08-19T21:08:37.446Z,101425.91
2022-08-19T21:10:42.389Z,101429.66
2022-08-19T21:12:44.452Z,101427.91
2022-08-19T21:14:47.116Z,101425.31
2022-08-19T21:16:50.412Z,101423.59
2022-08-19T21:18:51.922Z,101427.25
2022-08-19T21:20:55.187Z,101437.09
2022-08-19T21:22:56.697Z,101434.59
2022-08-19T21:24:58.237Z,101441.94
2022-08-19T21:27:00.457Z,101438.69
2022-08-19T21:29:01.971Z,101444.31
2022-08-19T21:31:06.207Z,101447.13
2022-08-19T21:33:07.758Z,101456.13
2022-08-19T21:35:10.022Z,101454.31
2022-08-19T21:37:18.947Z,101453.53
2022-08-19T21:39:26.918Z,101451.81
2022-08-19T21:41:28.455Z,101454.50
2022-08-19T21:43:30.187Z,101443.94
2022-08-19T21:45:31.800Z,101450.25
2022-08-19T21:47:33.413Z,101444.13
2022-08-19T21:49:35.128Z,101444.22
2022-08-19T21:51:36.661Z,101450.59
2022-08-19T21:53:38.732Z,101452.50
2022-08-19T21:55:40.615Z,101446.28
2022-08-19T21:57:42.665Z,101448.19
2022-08-19T21:59:44.406Z,101446.47
2022-08-19T22:01:50.461Z,101453.72
2022-08-19T22:03:55.599Z,101449.31
2022-08-19T22:05:58.612Z,101458.22
2022-08-19T22:08:01.567Z,101446.63
2022-08-19T22:10:06.305Z,101445.78
2022-08-19T22:12:11.197Z,101445.84
2022-08-19T22:14:12.751Z,101442.31
2022-08-19T22:16:15.358Z,101451.31
2022-08-19T22:18:17.881Z,101456.66
2022-08-19T22:20:23.012Z,101455.19
2022-08-19T22:22:27.990Z,101465.22
2022-08-19T22:24:29.502Z,101453.91
2022-08-19T22:26:31.823Z,101457.53
2022-08-19T22:28:33.333Z,101451.22
2022-08-19T22:30:36.211Z,101453.91
2022-08-19T22:32:38.900Z,101449.50
2022-08-19T22:34:41.205Z,101445.91
2022-08-19T22:36:42.736Z,101452.94
2022-08-19T22:38:44.329Z,101458.22
2022-08-19T22:40:48.530Z,101453.91
2022-08-19T22:43:10.184Z,101453.91
2022-08-19T22:45:15.516Z,101460.16
2022-08-19T22:47:18.029Z,101465.47
2022-08-19T22:49:19.596Z,101455.63
2022-08-19T22:51:39.652Z,101454.75
2022-08-19T22:53:43.597Z,101456.69
2022-08-19T22:55:45.104Z,101452.13
2022-08-19T22:57:46.582Z,101459.25
2022-08-19T22:59:50.179Z,101461.69
2022-08-19T23:01:51.675Z,101457.97
2022-08-19T23:03:53.570Z,101460.56
2022-08-19T23:05:56.204Z,101456.06
2022-08-19T23:07:58.578Z,101459.78
2022-08-19T23:10:00.310Z,101459.84
2022-08-19T23:12:01.813Z,101457.19
2022-08-19T23:14:05.585Z,101457.19
2022-08-19T23:16:07.504Z,101454.59
2022-08-19T23:18:09.022Z,101452.78
2022-08-19T23:20:14.446Z,101457.28
2022-08-19T23:22:17.817Z,101455.63
2022-08-19T23:24:19.431Z,101453.91
2022-08-19T23:26:21.337Z,101456.63
2022-08-19T23:28:42.175Z,101456.69
2022-08-19T23:30:48.657Z,101457.81
2022-08-19T23:32:50.141Z,101457.38
2022-08-19T23:34:52.512Z,101457.53
2022-08-19T23:36:54.052Z,101453.38
2022-08-19T23:38:55.601Z,101455.13
2022-08-19T23:41:00.602Z,101464.19
2022-08-19T23:43:04.036Z,101459.78
2022-08-19T23:45:09.995Z,101463.22